createdAt,value
2017-07-25T00:00:04.294Z,0
2017-07-25T00:01:05.809Z,0
2017-07-25T00:02:07.236Z,0
2017-07-25T00:03:08.640Z,0
2017-07-25T00:04:10.131Z,0
2017-07-25T00:05:11.541Z,0
2017-07-25T00:06:12.944Z,0
2017-07-25T00:07:14.469Z,0
2017-07-25T00:08:15.887Z,0
2017-07-25T00:09:17.547Z,0
2017-07-25T00:10:18.952Z,0
2017-07-25T00:11:20.416Z,0
2017-07-25T00:12:21.816Z,0
2017-07-25T00:13:23.298Z,0
2017-07-25T00:14:24.703Z,0
2017-07-25T00:15:26.177Z,0
2017-07-25T00:16:27.584Z,0
2017-07-25T00:17:29.056Z,0
2017-07-25T00:18:30.463Z,0
2017-07-25T00:19:31.866Z,0
2017-07-25T00:20:33.376Z,0
2017-07-25T00:21:34.785Z,0
2017-07-25T00:22:36.189Z,0
2017-07-25T00:23:37.700Z,0
2017-07-25T00:24:39.102Z,0
2017-07-25T00:25:40.592Z,0
2017-07-25T00:26:41.995Z,0
2017-07-25T00:27:43.466Z,0
2017-07-25T00:28:44.874Z,0
2017-07-25T00:29:46.282Z,0
2017-07-25T00:30:47.780Z,0
2017-07-25T00:31:49.186Z,0
2017-07-25T00:32:50.589Z,0
2017-07-25T00:33:52.103Z,0
2017-07-25T00:34:53.503Z,0
2017-07-25T00:35:54.926Z,0
2017-07-25T00:36:56.420Z,0
2017-07-25T00:37:57.821Z,0
2017-07-25T00:38:59.227Z,0
2017-07-25T00:40:00.743Z,0
2017-07-25T00:41:02.149Z,0
2017-07-25T00:42:03.578Z,0
2017-07-25T00:43:05.064Z,0
2017-07-25T00:44:06.494Z,0
2017-07-25T00:45:07.898Z,0
2017-07-25T00:46:09.384Z,0
2017-07-25T00:47:10.789Z,0
2017-07-25T00:48:12.190Z,0
2017-07-25T00:49:13.767Z,0
2017-07-25T00:50:15.165Z,0
2017-07-25T00:51:16.566Z,0
2017-07-25T00:52:18.027Z,0
2017-07-25T00:53:19.463Z,0
2017-07-25T00:54:20.885Z,0
2017-07-25T00:55:22.349Z,0
2017-07-25T00:56:23.776Z,0
2017-07-25T00:57:25.269Z,0
2017-07-25T00:58:26.686Z,0
2017-07-25T00:59:28.310Z,0
2017-07-25T01:00:29.751Z,0
2017-07-25T01:01:31.416Z,0
2017-07-25T01:02:32.824Z,0
2017-07-25T01:03:34.265Z,0
2017-07-25T01:04:35.720Z,0
2017-07-25T01:05:37.124Z,0
2017-07-25T01:06:38.527Z,0
2017-07-25T01:07:40.041Z,0
2017-07-25T01:08:41.449Z,0
2017-07-25T01:09:42.848Z,0
2017-07-25T01:10:44.379Z,0
2017-07-25T01:11:45.789Z,0
2017-07-25T01:12:47.252Z,0
2017-07-25T01:13:48.654Z,0
2017-07-25T01:14:50.069Z,0
2017-07-25T01:15:51.564Z,0
2017-07-25T01:16:52.969Z,0
2017-07-25T01:17:54.369Z,0
2017-07-25T01:18:55.883Z,0
2017-07-25T01:19:57.304Z,0
2017-07-25T01:20:58.766Z,0
2017-07-25T01:22:00.175Z,0
2017-07-25T01:23:01.646Z,0
2017-07-25T01:24:03.056Z,0
2017-07-25T01:25:04.451Z,0
2017-07-25T01:26:05.967Z,0
2017-07-25T01:27:07.382Z,0
2017-07-25T01:28:08.788Z,0
2017-07-25T01:29:10.286Z,0
2017-07-25T01:30:11.690Z,0
2017-07-25T01:31:13.126Z,0
2017-07-25T01:32:14.631Z,0
2017-07-25T01:33:16.035Z,0
2017-07-25T01:34:17.437Z,0
2017-07-25T01:35:18.930Z,0
2017-07-25T01:36:20.337Z,0
2017-07-25T01:37:21.743Z,0
2017-07-25T01:38:23.276Z,0
2017-07-25T01:39:24.704Z,0
2017-07-25T01:40:26.337Z,0
2017-07-25T01:41:27.737Z,0
2017-07-25T01:42:29.256Z,0
2017-07-25T01:43:30.664Z,0
2017-07-25T01:44:32.065Z,0
2017-07-25T01:45:33.557Z,0
2017-07-25T01:46:34.957Z,0
2017-07-25T01:47:36.362Z,0
2017-07-25T01:48:37.860Z,0
2017-07-25T01:49:39.266Z,0
2017-07-25T01:50:40.742Z,0
2017-07-25T01:51:42.141Z,0
2017-07-25T01:52:43.619Z,0
2017-07-25T01:53:45.036Z,0
2017-07-25T01:54:46.470Z,0
2017-07-25T01:55:47.952Z,0
2017-07-25T01:56:49.354Z,0
2017-07-25T01:57:50.759Z,0
2017-07-25T01:58:52.259Z,0
2017-07-25T01:59:53.709Z,0
2017-07-25T02:00:55.390Z,0
2017-07-25T02:01:56.855Z,0
2017-07-25T02:02:58.430Z,0
2017-07-25T02:03:59.831Z,0
2017-07-25T02:05:01.311Z,0
2017-07-25T02:06:02.740Z,0
2017-07-25T02:07:04.192Z,0
2017-07-25T02:08:05.594Z,0
2017-07-25T02:09:07.121Z,0
2017-07-25T02:10:08.532Z,0
2017-07-25T02:11:09.975Z,0
2017-07-25T02:12:11.599Z,0
2017-07-25T02:13:13.027Z,0
2017-07-25T02:14:14.424Z,0
2017-07-25T02:15:15.934Z,0
2017-07-25T02:16:17.338Z,0
2017-07-25T02:17:18.800Z,0
2017-07-25T02:18:20.203Z,0
2017-07-25T02:19:21.684Z,0
2017-07-25T02:20:23.135Z,0
2017-07-25T02:21:24.516Z,0
2017-07-25T02:22:26.008Z,0
2017-07-25T02:23:27.411Z,0
2017-07-25T02:24:28.813Z,0
2017-07-25T02:25:30.324Z,0
2017-07-25T02:26:31.728Z,0
2017-07-25T02:27:33.161Z,0
2017-07-25T02:28:34.643Z,0
2017-07-25T02:29:36.051Z,0
2017-07-25T02:30:37.451Z,0
2017-07-25T02:31:38.966Z,0
2017-07-25T02:32:40.367Z,0
2017-07-25T02:33:41.845Z,0
2017-07-25T02:34:43.280Z,0
2017-07-25T02:35:44.678Z,0
2017-07-25T02:36:46.175Z,0
2017-07-25T02:37:47.578Z,0
2017-07-25T02:38:48.979Z,0
2017-07-25T02:39:50.485Z,0
2017-07-25T02:40:51.891Z,0
2017-07-25T02:41:53.329Z,0
2017-07-25T02:42:54.811Z,0
2017-07-25T02:43:56.215Z,0
2017-07-25T02:44:57.618Z,0
2017-07-25T02:45:59.130Z,0
2017-07-25T02:47:00.535Z,0
2017-07-25T02:48:01.940Z,0
2017-07-25T02:49:03.492Z,0
2017-07-25T02:50:04.907Z,0
2017-07-25T02:51:06.300Z,0
2017-07-25T02:52:07.770Z,0
2017-07-25T02:53:09.174Z,0
2017-07-25T02:54:10.654Z,0
2017-07-25T02:55:12.076Z,0
2017-07-25T02:56:13.503Z,0
2017-07-25T02:57:14.971Z,0
2017-07-25T02:58:16.380Z,0
2017-07-25T02:59:17.804Z,0
2017-07-25T03:00:19.302Z,0
2017-07-25T03:01:20.707Z,0
2017-07-25T03:02:22.110Z,0
2017-07-25T03:03:24.042Z,0
2017-07-25T03:04:25.451Z,0
2017-07-25T03:05:26.874Z,0
2017-07-25T03:06:28.448Z,0
2017-07-25T03:07:30.243Z,0
2017-07-25T03:08:31.994Z,0
2017-07-25T03:09:33.398Z,0
2017-07-25T03:10:34.820Z,0
2017-07-25T03:11:36.467Z,0
2017-07-25T03:12:37.869Z,0
2017-07-25T03:13:39.271Z,0
2017-07-25T03:14:40.995Z,0
2017-07-25T03:15:42.491Z,0
2017-07-25T03:16:43.895Z,0
2017-07-25T03:17:45.557Z,0
2017-07-25T03:18:46.961Z,0
2017-07-25T03:19:48.394Z,0
2017-07-25T03:20:50.045Z,0
2017-07-25T03:21:51.448Z,0
2017-07-25T03:22:52.877Z,0
2017-07-25T03:23:54.571Z,0
2017-07-25T03:24:55.978Z,0
2017-07-25T03:25:57.376Z,0
2017-07-25T03:26:58.898Z,0
2017-07-25T03:28:00.301Z,0
2017-07-25T03:29:01.703Z,4
2017-07-25T03:30:03.447Z,4
2017-07-25T03:31:04.866Z,4
2017-07-25T03:32:06.506Z,4
2017-07-25T03:33:07.922Z,4
2017-07-25T03:34:09.591Z,4
2017-07-25T03:35:11.003Z,0
2017-07-25T03:36:12.403Z,0
2017-07-25T03:37:14.138Z,0
2017-07-25T03:38:15.540Z,4
2017-07-25T03:39:16.944Z,8
2017-07-25T03:40:18.642Z,4
2017-07-25T03:41:20.044Z,8
2017-07-25T03:42:21.471Z,8
2017-07-25T03:43:23.170Z,4
2017-07-25T03:44:24.671Z,8
2017-07-25T03:45:26.117Z,8
2017-07-25T03:46:27.739Z,8
2017-07-25T03:47:29.106Z,12
2017-07-25T03:48:30.784Z,12
2017-07-25T03:49:32.201Z,8
2017-07-25T03:50:33.876Z,12
2017-07-25T03:51:35.270Z,12
2017-07-25T03:52:36.955Z,12
2017-07-25T03:53:38.358Z,16
2017-07-25T03:54:40.042Z,16
2017-07-25T03:55:41.491Z,20
2017-07-25T03:56:42.899Z,20
2017-07-25T03:57:44.563Z,20
2017-07-25T03:58:45.970Z,20
2017-07-25T03:59:47.375Z,20
2017-07-25T04:00:49.098Z,20
2017-07-25T04:01:50.495Z,20
2017-07-25T04:02:52.172Z,24
2017-07-25T04:03:53.572Z,24
2017-07-25T04:04:55.272Z,28
2017-07-25T04:05:56.681Z,28
2017-07-25T04:06:58.345Z,32
2017-07-25T04:07:59.772Z,32
2017-07-25T04:09:01.445Z,32
2017-07-25T04:10:02.847Z,36
2017-07-25T04:11:04.517Z,36
2017-07-25T04:12:05.921Z,40
2017-07-25T04:13:07.608Z,36
2017-07-25T04:14:09.012Z,36
2017-07-25T04:15:10.743Z,44
2017-07-25T04:16:12.146Z,44
2017-07-25T04:17:13.551Z,48
2017-07-25T04:18:15.210Z,48
2017-07-25T04:19:16.610Z,52
2017-07-25T04:20:19.012Z,52
2017-07-25T04:21:20.561Z,52
2017-07-25T04:22:22.000Z,56
2017-07-25T04:23:23.641Z,52
2017-07-25T04:24:25.041Z,56
2017-07-25T04:25:26.727Z,56
2017-07-25T04:26:28.131Z,60
2017-07-25T04:27:29.557Z,64
2017-07-25T04:28:31.282Z,68
2017-07-25T04:29:32.738Z,76
2017-07-25T04:30:34.141Z,76
2017-07-25T04:31:35.775Z,88
2017-07-25T04:32:37.179Z,88
2017-07-25T04:33:38.861Z,92
2017-07-25T04:34:40.289Z,104
2017-07-25T04:35:41.946Z,96
2017-07-25T04:36:43.351Z,88
2017-07-25T04:37:44.754Z,80
2017-07-25T04:38:46.276Z,80
2017-07-25T04:39:47.702Z,84
2017-07-25T04:40:49.104Z,76
2017-07-25T04:41:50.863Z,80
2017-07-25T04:42:52.269Z,72
2017-07-25T04:43:53.902Z,80
2017-07-25T04:44:55.300Z,84
2017-07-25T04:45:56.961Z,80
2017-07-25T04:46:58.370Z,68
2017-07-25T04:47:59.803Z,68
2017-07-25T04:49:01.486Z,76
2017-07-25T04:50:02.894Z,72
2017-07-25T04:51:04.305Z,72
2017-07-25T04:52:05.835Z,84
2017-07-25T04:53:07.259Z,80
2017-07-25T04:54:08.897Z,104
2017-07-25T04:55:10.305Z,120
2017-07-25T04:56:11.982Z,164
2017-07-25T04:57:13.454Z,176
2017-07-25T04:58:15.091Z,184
2017-07-25T04:59:16.520Z,200
2017-07-25T05:00:18.168Z,172
2017-07-25T05:01:19.590Z,180
2017-07-25T05:02:21.250Z,152
2017-07-25T05:03:22.682Z,128
2017-07-25T05:04:24.379Z,104
2017-07-25T05:05:25.780Z,80
2017-07-25T05:06:27.430Z,80
2017-07-25T05:07:28.834Z,116
2017-07-25T05:08:30.493Z,120
2017-07-25T05:09:31.900Z,80
2017-07-25T05:10:33.578Z,88
2017-07-25T05:11:34.991Z,136
2017-07-25T05:12:36.393Z,188
2017-07-25T05:13:37.903Z,220
2017-07-25T05:14:39.312Z,260
2017-07-25T05:15:40.730Z,352
2017-07-25T05:16:42.427Z,308
2017-07-25T05:17:43.835Z,280
2017-07-25T05:18:45.282Z,336
2017-07-25T05:19:46.968Z,360
2017-07-25T05:20:48.373Z,300
2017-07-25T05:21:49.778Z,348
2017-07-25T05:22:51.480Z,368
2017-07-25T05:23:52.884Z,320
2017-07-25T05:24:54.565Z,296
2017-07-25T05:25:55.970Z,184
2017-07-25T05:26:57.650Z,224
2017-07-25T05:27:59.054Z,296
2017-07-25T05:29:00.674Z,372
2017-07-25T05:30:02.101Z,384
2017-07-25T05:31:03.622Z,352
2017-07-25T05:32:05.031Z,372
2017-07-25T05:33:06.435Z,392
2017-07-25T05:34:07.939Z,360
2017-07-25T05:35:09.341Z,356
2017-07-25T05:36:10.756Z,300
2017-07-25T05:37:12.258Z,336
2017-07-25T05:38:13.673Z,372
2017-07-25T05:39:15.397Z,432
2017-07-25T05:40:16.804Z,468
2017-07-25T05:41:18.428Z,408
2017-07-25T05:42:19.836Z,480
2017-07-25T05:43:21.253Z,560
2017-07-25T05:44:22.755Z,548
2017-07-25T05:45:24.159Z,432
2017-07-25T05:46:25.571Z,544
2017-07-25T05:47:27.072Z,608
2017-07-25T05:48:28.479Z,472
2017-07-25T05:49:30.159Z,500
2017-07-25T05:50:31.636Z,548
2017-07-25T05:51:33.250Z,508
2017-07-25T05:52:34.660Z,560
2017-07-25T05:53:37.353Z,612
2017-07-25T05:54:38.757Z,680
2017-07-25T05:55:40.436Z,580
2017-07-25T05:56:41.841Z,600
2017-07-25T05:57:43.362Z,736
2017-07-25T05:58:44.962Z,792
2017-07-25T05:59:46.372Z,844
2017-07-25T06:00:47.796Z,908
2017-07-25T06:01:49.289Z,924
2017-07-25T06:02:50.730Z,912
2017-07-25T06:03:52.369Z,832
2017-07-25T06:04:53.817Z,796
2017-07-25T06:05:55.467Z,736
2017-07-25T06:06:56.874Z,824
2017-07-25T06:07:58.280Z,888
2017-07-25T06:08:59.773Z,888
2017-07-25T06:10:01.179Z,848
2017-07-25T06:11:02.584Z,812
2017-07-25T06:12:04.096Z,760
2017-07-25T06:13:05.498Z,692
2017-07-25T06:14:06.904Z,668
2017-07-25T06:15:08.423Z,676
2017-07-25T06:16:09.829Z,696
2017-07-25T06:17:11.270Z,728
2017-07-25T06:18:17.224Z,764
2017-07-25T06:19:18.637Z,796
2017-07-25T06:20:26.029Z,812
2017-07-25T06:21:27.307Z,848
2017-07-25T06:22:28.705Z,876
2017-07-25T06:23:30.117Z,856
2017-07-25T06:24:31.621Z,848
2017-07-25T06:25:33.027Z,928
2017-07-25T06:26:34.429Z,888
2017-07-25T06:27:35.942Z,956
2017-07-25T06:28:37.344Z,1004
2017-07-25T06:29:39.030Z,948
2017-07-25T06:30:40.437Z,960
2017-07-25T06:31:42.113Z,996
2017-07-25T06:32:43.516Z,888
2017-07-25T06:33:45.197Z,700
2017-07-25T06:34:46.604Z,656
2017-07-25T06:35:48.288Z,776
2017-07-25T06:36:49.695Z,996
2017-07-25T06:37:51.166Z,1020
2017-07-25T06:38:52.576Z,848
2017-07-25T06:39:54.248Z,544
2017-07-25T06:40:55.652Z,564
2017-07-25T06:41:57.336Z,636
2017-07-25T06:42:58.750Z,652
2017-07-25T06:44:00.159Z,632
2017-07-25T06:45:01.658Z,648
2017-07-25T06:46:03.077Z,640
2017-07-25T06:47:04.472Z,624
2017-07-25T06:48:05.977Z,616
2017-07-25T06:49:07.386Z,640
2017-07-25T06:50:08.793Z,688
2017-07-25T06:51:10.299Z,700
2017-07-25T06:52:11.707Z,684
2017-07-25T06:53:13.122Z,656
2017-07-25T06:54:14.619Z,656
2017-07-25T06:55:16.023Z,656
2017-07-25T06:56:17.435Z,664
2017-07-25T06:57:18.954Z,692
2017-07-25T06:58:20.362Z,712
2017-07-25T06:59:21.767Z,744
2017-07-25T07:00:23.261Z,784
2017-07-25T07:01:24.665Z,820
2017-07-25T07:02:26.142Z,832
2017-07-25T07:03:27.546Z,868
2017-07-25T07:04:29.315Z,880
2017-07-25T07:05:30.725Z,904
2017-07-25T07:06:32.313Z,912
2017-07-25T07:07:33.744Z,952
2017-07-25T07:08:35.403Z,1020
2017-07-25T07:09:36.809Z,1048
2017-07-25T07:10:38.485Z,1100
2017-07-25T07:11:39.892Z,1168
2017-07-25T07:12:41.598Z,1228
2017-07-25T07:13:42.980Z,1116
2017-07-25T07:14:44.390Z,896
2017-07-25T07:15:45.891Z,776
2017-07-25T07:16:47.306Z,784
2017-07-25T07:17:48.716Z,816
2017-07-25T07:18:50.213Z,932
2017-07-25T07:19:51.622Z,860
2017-07-25T07:20:53.298Z,768
2017-07-25T07:21:54.703Z,676
2017-07-25T07:22:56.394Z,704
2017-07-25T07:23:57.870Z,808
2017-07-25T07:24:59.280Z,820
2017-07-25T07:26:00.909Z,668
2017-07-25T07:27:02.316Z,524
2017-07-25T07:28:03.727Z,464
2017-07-25T07:29:05.228Z,624
2017-07-25T07:30:06.670Z,844
2017-07-25T07:31:08.314Z,824
2017-07-25T07:32:09.718Z,1012
2017-07-25T07:33:11.195Z,1188
2017-07-25T07:34:12.617Z,1412
2017-07-25T07:35:14.286Z,1400
2017-07-25T07:36:15.693Z,1332
2017-07-25T07:37:17.364Z,1144
2017-07-25T07:38:18.770Z,948
2017-07-25T07:39:20.173Z,720
2017-07-25T07:40:21.706Z,564
2017-07-25T07:41:23.112Z,532
2017-07-25T07:42:24.517Z,664
2017-07-25T07:43:26.016Z,764
2017-07-25T07:44:27.412Z,748
2017-07-25T07:45:28.814Z,780
2017-07-25T07:46:30.339Z,812
2017-07-25T07:47:31.749Z,728
2017-07-25T07:48:33.153Z,708
2017-07-25T07:49:34.653Z,560
2017-07-25T07:50:36.059Z,428
2017-07-25T07:51:37.469Z,452
2017-07-25T07:52:38.970Z,468
2017-07-25T07:53:40.395Z,572
2017-07-25T07:54:41.855Z,692
2017-07-25T07:55:43.496Z,752
2017-07-25T07:56:44.898Z,728
2017-07-25T07:57:46.383Z,724
2017-07-25T07:58:47.794Z,884
2017-07-25T07:59:49.261Z,1072
2017-07-25T08:00:50.666Z,1128
2017-07-25T08:01:52.141Z,1032
2017-07-25T08:02:53.549Z,1092
2017-07-25T08:03:54.945Z,996
2017-07-25T08:04:56.465Z,1000
2017-07-25T08:05:57.877Z,1100
2017-07-25T08:06:59.278Z,1256
2017-07-25T08:08:00.786Z,1484
2017-07-25T08:09:02.192Z,1312
2017-07-25T08:10:03.597Z,964
2017-07-25T08:11:05.103Z,1364
2017-07-25T08:12:06.510Z,1364
2017-07-25T08:13:07.981Z,1432
2017-07-25T08:14:09.406Z,1404
2017-07-25T08:15:11.894Z,1632
2017-07-25T08:16:13.300Z,1628
2017-07-25T08:17:14.777Z,1184
2017-07-25T08:18:16.189Z,1160
2017-07-25T08:19:17.865Z,1416
2017-07-25T08:20:19.263Z,1772
2017-07-25T08:21:20.735Z,2024
2017-07-25T08:22:22.145Z,2160
2017-07-25T08:23:23.637Z,2204
2017-07-25T08:24:25.040Z,2132
2017-07-25T08:25:26.444Z,2224
2017-07-25T08:26:27.938Z,2220
2017-07-25T08:27:29.341Z,2212
2017-07-25T08:28:30.746Z,2280
2017-07-25T08:29:32.259Z,2420
2017-07-25T08:30:33.665Z,2440
2017-07-25T08:31:35.139Z,2496
2017-07-25T08:32:36.548Z,2432
2017-07-25T08:33:38.044Z,2380
2017-07-25T08:34:39.460Z,2476
2017-07-25T08:35:41.137Z,2548
2017-07-25T08:36:42.546Z,2600
2017-07-25T08:37:44.200Z,2564
2017-07-25T08:38:45.597Z,2520
2017-07-25T08:39:47.093Z,2440
2017-07-25T08:40:48.499Z,2516
2017-07-25T08:41:50.155Z,2580
2017-07-25T08:42:51.569Z,2636
2017-07-25T08:43:53.035Z,2680
2017-07-25T08:44:54.452Z,2708
2017-07-25T08:45:55.916Z,2736
2017-07-25T08:46:57.337Z,2796
2017-07-25T08:47:58.804Z,2656
2017-07-25T08:49:00.202Z,2716
2017-07-25T08:50:01.696Z,2896
2017-07-25T08:51:03.084Z,2960
2017-07-25T08:52:04.560Z,3072
2017-07-25T08:53:05.968Z,3176
2017-07-25T08:54:07.457Z,3216
2017-07-25T08:55:08.868Z,2944
2017-07-25T08:56:10.528Z,2980
2017-07-25T08:57:11.934Z,2912
2017-07-25T08:58:13.407Z,2472
2017-07-25T08:59:14.824Z,2308
2017-07-25T09:00:16.287Z,2648
2017-07-25T09:01:17.698Z,2676
2017-07-25T09:02:19.166Z,2780
2017-07-25T09:03:20.574Z,2780
2017-07-25T09:04:22.025Z,2516
2017-07-25T09:05:23.432Z,2348
2017-07-25T09:06:24.909Z,1600
2017-07-25T09:07:26.322Z,1012
2017-07-25T09:08:27.776Z,1268
2017-07-25T09:09:29.186Z,1468
2017-07-25T09:10:30.592Z,1812
2017-07-25T09:11:32.099Z,1664
2017-07-25T09:12:33.513Z,2028
2017-07-25T09:13:34.930Z,2708
2017-07-25T09:14:36.427Z,3000
2017-07-25T09:15:37.839Z,3128
2017-07-25T09:16:40.358Z,3272
2017-07-25T09:17:41.766Z,3168
2017-07-25T09:18:43.226Z,2980
2017-07-25T09:19:44.672Z,2680
2017-07-25T09:20:46.295Z,2756
2017-07-25T09:21:47.704Z,2612
2017-07-25T09:22:49.173Z,2780
2017-07-25T09:23:50.591Z,2388
2017-07-25T09:24:52.050Z,2624
2017-07-25T09:25:53.490Z,3168
2017-07-25T09:26:54.944Z,2192
2017-07-25T09:27:56.343Z,3412
2017-07-25T09:28:57.813Z,2804
2017-07-25T09:29:59.246Z,2308
2017-07-25T09:31:00.652Z,2928
2017-07-25T09:32:02.163Z,2804
2017-07-25T09:33:03.588Z,2884
2017-07-25T09:34:04.998Z,3724
2017-07-25T09:35:06.506Z,4292
2017-07-25T09:36:07.915Z,4120
2017-07-25T09:37:09.399Z,3604
2017-07-25T09:38:11.042Z,3476
2017-07-25T09:39:12.450Z,4200
2017-07-25T09:40:13.880Z,4560
2017-07-25T09:41:15.435Z,4736
2017-07-25T09:42:16.847Z,3712
2017-07-25T09:43:18.413Z,3356
2017-07-25T09:44:19.826Z,3168
2017-07-25T09:45:21.328Z,3596
2017-07-25T09:46:22.737Z,3104
2017-07-25T09:47:24.406Z,4056
2017-07-25T09:48:25.814Z,4140
2017-07-25T09:49:27.250Z,3872
2017-07-25T09:50:28.702Z,3400
2017-07-25T09:51:30.114Z,4256
2017-07-25T09:52:31.585Z,4272
2017-07-25T09:53:32.993Z,3260
2017-07-25T09:54:34.466Z,3176
2017-07-25T09:55:35.880Z,3552
2017-07-25T09:56:37.291Z,3784
2017-07-25T09:57:38.787Z,3576
2017-07-25T09:58:40.200Z,3232
2017-07-25T09:59:41.611Z,4068
2017-07-25T10:00:43.105Z,4072
2017-07-25T10:01:44.538Z,4524
2017-07-25T10:02:45.988Z,4148
2017-07-25T10:03:47.398Z,4172
2017-07-25T10:04:48.867Z,2084
2017-07-25T10:05:50.279Z,2064
2017-07-25T10:06:51.689Z,2708
2017-07-25T10:07:53.185Z,3756
2017-07-25T10:08:54.601Z,4592
2017-07-25T10:09:56.010Z,4644
2017-07-25T10:10:57.510Z,4408
2017-07-25T10:11:58.922Z,4252
2017-07-25T10:13:00.389Z,4108
2017-07-25T10:14:01.800Z,3548
2017-07-25T10:15:03.284Z,3928
2017-07-25T10:16:04.690Z,3124
2017-07-25T10:17:06.100Z,3108
2017-07-25T10:18:07.590Z,2780
2017-07-25T10:19:09.002Z,2372
2017-07-25T10:20:10.411Z,2508
2017-07-25T10:21:11.912Z,2776
2017-07-25T10:22:13.324Z,2972
2017-07-25T10:23:14.729Z,3076
2017-07-25T10:24:16.233Z,3052
2017-07-25T10:25:17.644Z,2908
2017-07-25T10:26:19.063Z,2812
2017-07-25T10:27:20.555Z,2764
2017-07-25T10:28:21.962Z,2892
2017-07-25T10:29:23.429Z,2956
2017-07-25T10:30:24.840Z,3012
2017-07-25T10:31:26.314Z,3000
2017-07-25T10:32:27.724Z,2844
2017-07-25T10:33:29.183Z,2448
2017-07-25T10:34:30.596Z,2012
2017-07-25T10:35:32.071Z,1596
2017-07-25T10:36:33.489Z,1420
2017-07-25T10:37:34.956Z,1184
2017-07-25T10:38:36.361Z,860
2017-07-25T10:39:37.910Z,860
2017-07-25T10:40:39.315Z,720
2017-07-25T10:41:40.730Z,816
2017-07-25T10:42:42.390Z,816
2017-07-25T10:43:43.795Z,1040
2017-07-25T10:44:45.206Z,1296
2017-07-25T10:45:46.686Z,1304
2017-07-25T10:46:48.096Z,1492
2017-07-25T10:47:49.561Z,1028
2017-07-25T10:48:50.972Z,1136
2017-07-25T10:49:52.457Z,1576
2017-07-25T10:50:53.864Z,1460
2017-07-25T10:51:55.345Z,1200
2017-07-25T10:52:56.754Z,1992
2017-07-25T10:53:58.197Z,2780
2017-07-25T10:54:59.607Z,1952
2017-07-25T10:56:01.021Z,1296
2017-07-25T10:57:02.433Z,1740
2017-07-25T10:58:03.965Z,1156
2017-07-25T10:59:05.375Z,1992
2017-07-25T11:00:06.796Z,2316
2017-07-25T11:01:08.292Z,2184
2017-07-25T11:02:09.697Z,2388
2017-07-25T11:03:11.169Z,2348
2017-07-25T11:04:12.598Z,2296
2017-07-25T11:05:14.151Z,2208
2017-07-25T11:06:15.563Z,2364
2017-07-25T11:07:17.236Z,2296
2017-07-25T11:08:18.646Z,2284
2017-07-25T11:09:20.322Z,2360
2017-07-25T11:10:21.732Z,2400
2017-07-25T11:11:23.406Z,2812
2017-07-25T11:12:24.815Z,3056
2017-07-25T11:13:26.493Z,3020
2017-07-25T11:14:27.902Z,3112
2017-07-25T11:15:29.579Z,3264
2017-07-25T11:16:30.988Z,3316
2017-07-25T11:17:32.401Z,3036
2017-07-25T11:18:34.000Z,3008
2017-07-25T11:19:35.406Z,2776
2017-07-25T11:20:36.829Z,2588
2017-07-25T11:21:38.320Z,3144
2017-07-25T11:22:39.734Z,3344
2017-07-25T11:23:41.140Z,3020
2017-07-25T11:24:42.642Z,2352
2017-07-25T11:25:44.068Z,2584
2017-07-25T11:26:45.473Z,2312
2017-07-25T11:27:46.979Z,2204
2017-07-25T11:28:48.392Z,2324
2017-07-25T11:29:49.797Z,2332
2017-07-25T11:30:51.286Z,2384
2017-07-25T11:31:52.707Z,2468
2017-07-25T11:32:54.152Z,2748
2017-07-25T11:33:55.609Z,3040
2017-07-25T11:34:57.016Z,3192
2017-07-25T11:35:58.424Z,2276
2017-07-25T11:36:59.944Z,2728
2017-07-25T11:38:01.361Z,2748
2017-07-25T11:39:02.780Z,2692
2017-07-25T11:40:04.254Z,2648
2017-07-25T11:41:05.657Z,2724
2017-07-25T11:42:07.081Z,2952
2017-07-25T11:43:08.573Z,3232
2017-07-25T11:44:09.983Z,3340
2017-07-25T11:45:11.392Z,3204
2017-07-25T11:46:12.893Z,3176
2017-07-25T11:47:14.303Z,3092
2017-07-25T11:48:15.711Z,2892
2017-07-25T11:49:17.195Z,2748
2017-07-25T11:50:18.608Z,2376
2017-07-25T11:51:20.094Z,2332
2017-07-25T11:52:21.538Z,1948
2017-07-25T11:53:22.973Z,1720
2017-07-25T11:54:24.426Z,1648
2017-07-25T11:55:25.846Z,1284
2017-07-25T11:56:27.248Z,1244
2017-07-25T11:57:28.774Z,1260
2017-07-25T11:58:30.180Z,1248
2017-07-25T11:59:31.620Z,1280
2017-07-25T12:00:33.042Z,1384
2017-07-25T12:01:34.458Z,1476
2017-07-25T12:02:35.943Z,1596
2017-07-25T12:03:37.367Z,1688
2017-07-25T12:04:38.770Z,1892
2017-07-25T12:05:40.264Z,1768
2017-07-25T12:06:41.672Z,1424
2017-07-25T12:07:43.084Z,1260
2017-07-25T12:08:44.585Z,1748
2017-07-25T12:09:45.991Z,2116
2017-07-25T12:10:47.469Z,2296
2017-07-25T12:11:48.880Z,2068
2017-07-25T12:12:50.291Z,2164
2017-07-25T12:13:51.789Z,2140
2017-07-25T12:14:53.199Z,1948
2017-07-25T12:15:54.651Z,2188
2017-07-25T12:16:56.201Z,1688
2017-07-25T12:17:57.609Z,1292
2017-07-25T12:18:59.287Z,1640
2017-07-25T12:20:00.697Z,1432
2017-07-25T12:21:02.369Z,1800
2017-07-25T12:22:03.781Z,1312
2017-07-25T12:23:05.189Z,1632
2017-07-25T12:24:06.898Z,2224
2017-07-25T12:25:08.306Z,2460
2017-07-25T12:26:09.716Z,2848
2017-07-25T12:27:11.424Z,2824
2017-07-25T12:28:12.855Z,3048
2017-07-25T12:29:14.516Z,3488
2017-07-25T12:30:15.918Z,3640
2017-07-25T12:31:17.598Z,3316
2017-07-25T12:32:19.031Z,3340
2017-07-25T12:33:20.440Z,3760
2017-07-25T12:34:22.168Z,4032
2017-07-25T12:35:23.575Z,3244
2017-07-25T12:36:24.985Z,2792
2017-07-25T12:37:26.647Z,2780
2017-07-25T12:38:28.053Z,2616
2017-07-25T12:39:29.734Z,2424
2017-07-25T12:40:31.140Z,2084
2017-07-25T12:41:32.837Z,1640
2017-07-25T12:42:34.245Z,1316
2017-07-25T12:43:35.903Z,1316
2017-07-25T12:44:37.324Z,1580
2017-07-25T12:45:38.992Z,1796
2017-07-25T12:46:40.395Z,1720
2017-07-25T12:47:41.810Z,1384
2017-07-25T12:48:43.512Z,1356
2017-07-25T12:49:44.929Z,1352
2017-07-25T12:50:46.346Z,1388
2017-07-25T12:51:48.044Z,1396
2017-07-25T12:52:49.452Z,1224
2017-07-25T12:53:50.858Z,936
2017-07-25T12:54:52.588Z,464
2017-07-25T12:55:53.998Z,368
2017-07-25T12:56:55.650Z,316
2017-07-25T12:57:57.067Z,600
2017-07-25T12:58:58.469Z,776
2017-07-25T13:00:00.190Z,1140
2017-07-25T13:01:01.591Z,1188
2017-07-25T13:02:02.997Z,992
2017-07-25T13:03:04.701Z,1780
2017-07-25T13:04:06.157Z,1756
2017-07-25T13:05:07.564Z,1504
2017-07-25T13:06:09.227Z,1588
2017-07-25T13:07:10.637Z,1732
2017-07-25T13:08:12.048Z,1852
2017-07-25T13:09:13.754Z,1764
2017-07-25T13:10:15.163Z,2224
2017-07-25T13:11:16.576Z,2140
2017-07-25T13:12:18.682Z,1908
2017-07-25T13:13:20.100Z,1988
2017-07-25T13:14:21.495Z,1984
2017-07-25T13:15:23.009Z,2040
2017-07-25T13:16:24.418Z,2084
2017-07-25T13:17:25.876Z,2052
2017-07-25T13:18:27.540Z,1984
2017-07-25T13:19:28.946Z,1904
2017-07-25T13:20:30.621Z,1956
2017-07-25T13:21:32.034Z,1920
2017-07-25T13:22:33.710Z,1936
2017-07-25T13:23:35.117Z,1896
2017-07-25T13:24:36.793Z,1888
2017-07-25T13:25:38.202Z,1864
2017-07-25T13:26:39.878Z,1960
2017-07-25T13:27:41.288Z,1880
2017-07-25T13:28:42.695Z,1720
2017-07-25T13:29:44.200Z,1924
2017-07-25T13:30:45.604Z,1864
2017-07-25T13:31:47.012Z,1752
2017-07-25T13:32:48.525Z,1568
2017-07-25T13:33:49.935Z,1668
2017-07-25T13:34:51.604Z,1668
2017-07-25T13:35:53.015Z,1660
2017-07-25T13:36:54.691Z,1508
2017-07-25T13:37:56.099Z,1128
2017-07-25T13:38:57.507Z,816
2017-07-25T13:39:59.009Z,836
2017-07-25T13:41:00.425Z,1492
2017-07-25T13:42:01.831Z,2104
2017-07-25T13:43:03.342Z,1788
2017-07-25T13:44:04.766Z,2000
2017-07-25T13:45:06.417Z,1892
2017-07-25T13:46:07.827Z,1880
2017-07-25T13:47:09.430Z,2096
2017-07-25T13:48:10.840Z,2392
2017-07-25T13:49:12.249Z,2184
2017-07-25T13:50:13.824Z,1976
2017-07-25T13:51:15.250Z,1936
2017-07-25T13:52:16.665Z,2104
2017-07-25T13:53:18.377Z,2376
2017-07-25T13:54:19.770Z,2372
2017-07-25T13:55:21.366Z,2028
2017-07-25T13:56:22.778Z,2496
2017-07-25T13:57:24.344Z,2512
2017-07-25T13:58:25.732Z,2724
2017-07-25T13:59:27.142Z,2520
2017-07-25T14:00:28.636Z,2740
2017-07-25T14:01:30.043Z,2124
2017-07-25T14:02:31.484Z,2340
2017-07-25T14:03:33.161Z,2872
2017-07-25T14:04:34.568Z,2588
2017-07-25T14:05:35.976Z,2860
2017-07-25T14:06:37.482Z,1968
2017-07-25T14:07:38.893Z,1756
2017-07-25T14:08:40.313Z,1992
2017-07-25T14:09:42.007Z,1364
2017-07-25T14:10:43.417Z,1408
2017-07-25T14:11:44.821Z,692